createdAt,value
2023-02-15T00:02:57.511Z,6.90
2023-02-15T00:07:59.291Z,6.32
2023-02-15T00:13:01.540Z,7.70
2023-02-15T00:18:03.475Z,6.97
2023-02-15T00:23:05.381Z,6.70
2023-02-15T00:28:07.301Z,7.40
2023-02-15T00:33:10.325Z,5.43
2023-02-15T00:38:13.725Z,6.72
2023-02-15T00:43:16.646Z,7.45
2023-02-15T00:48:19.471Z,5.95
2023-02-15T00:53:22.237Z,5.88
2023-02-15T00:58:24.487Z,7.05
2023-02-15T01:03:26.398Z,6.40
2023-02-15T01:08:28.735Z,5.63
2023-02-15T01:13:30.796Z,6.22
2023-02-15T01:18:33.545Z,5.60
2023-02-15T01:23:35.494Z,5.70
2023-02-15T01:28:39.596Z,5.07
2023-02-15T01:33:41.571Z,4.97
2023-02-15T01:38:45.039Z,4.95
2023-02-15T01:43:50.279Z,5.40
2023-02-15T01:49:02.534Z,5.45
2023-02-15T01:54:22.656Z,5.68
2023-02-15T01:59:26.312Z,5.50
2023-02-15T02:04:41.281Z,5.72
2023-02-15T02:09:43.826Z,6.90
2023-02-15T02:14:48.000Z,5.93
2023-02-15T02:20:21.877Z,6.20
2023-02-15T02:25:52.211Z,5.68
2023-02-15T02:31:38.442Z,6.70
2023-02-15T02:36:59.135Z,5.85
2023-02-15T02:42:17.461Z,4.72
2023-02-15T02:47:31.042Z,4.55
2023-02-15T02:52:49.637Z,4.28
2023-02-15T02:58:15.635Z,5.10
2023-02-15T03:03:24.884Z,4.07
2023-02-15T03:08:37.142Z,4.03
2023-02-15T03:13:39.827Z,4.75
2023-02-15T03:18:59.113Z,4.80
2023-02-15T03:24:10.695Z,5.05
2023-02-15T03:29:14.354Z,5.50
2023-02-15T03:34:18.061Z,5.53
2023-02-15T03:39:27.975Z,5.07
2023-02-15T03:44:37.101Z,5.20
2023-02-15T03:49:56.661Z,5.07
2023-02-15T03:54:58.777Z,5.07
2023-02-15T04:00:20.766Z,6.03
2023-02-15T04:05:23.187Z,6.38
2023-02-15T04:10:43.462Z,6.57
2023-02-15T04:16:03.952Z,6.00
2023-02-15T04:21:24.593Z,5.45
2023-02-15T04:26:26.346Z,6.47
2023-02-15T04:31:28.206Z,6.35
2023-02-15T04:36:30.697Z,6.60
2023-02-15T04:41:33.068Z,6.10
2023-02-15T04:46:34.988Z,5.88
2023-02-15T04:51:37.207Z,6.80
2023-02-15T04:56:40.027Z,6.38
2023-02-15T05:01:42.443Z,6.30
2023-02-15T05:06:44.389Z,5.53
2023-02-15T05:11:46.565Z,4.40
2023-02-15T05:21:51.145Z,4.95
2023-02-15T05:27:14.368Z,4.97
2023-02-15T05:32:16.432Z,4.50
2023-02-15T05:37:18.302Z,5.38
2023-02-15T05:42:20.089Z,5.78
2023-02-15T05:47:21.930Z,4.50
2023-02-15T05:52:23.870Z,5.18
2023-02-15T05:57:32.271Z,5.05
2023-02-15T06:02:37.765Z,4.30
2023-02-15T06:07:39.656Z,3.90
2023-02-15T06:12:41.640Z,3.88
2023-02-15T06:17:44.372Z,4.90
2023-02-15T06:22:46.249Z,4.85
2023-02-15T06:27:48.080Z,5.05
2023-02-15T06:32:49.864Z,4.22
2023-02-15T06:37:51.701Z,4.82
2023-02-15T06:42:53.659Z,5.18
2023-02-15T06:47:55.667Z,4.65
2023-02-15T06:52:58.944Z,4.60
2023-02-15T06:58:00.824Z,4.35
2023-02-15T07:03:03.629Z,4.55
2023-02-15T07:08:05.619Z,5.15
2023-02-15T07:13:07.448Z,5.55
2023-02-15T07:18:10.602Z,4.40
2023-02-15T07:23:12.718Z,4.90
2023-02-15T07:28:14.978Z,4.05
2023-02-15T07:33:25.481Z,4.28
2023-02-15T07:38:28.670Z,4.03
2023-02-15T07:43:31.396Z,4.63
2023-02-15T07:48:34.532Z,4.15
2023-02-15T07:53:37.118Z,4.25
2023-02-15T07:58:52.086Z,4.60
2023-02-15T08:03:56.998Z,4.47
2023-02-15T08:08:59.882Z,5.07
2023-02-15T08:14:03.488Z,5.68
2023-02-15T08:19:18.656Z,5.90
2023-02-15T08:24:23.016Z,6.18
2023-02-15T08:29:27.769Z,6.30
2023-02-15T08:34:31.826Z,6.45
2023-02-15T08:39:33.599Z,6.32
2023-02-15T08:44:35.360Z,6.10
2023-02-15T08:49:37.241Z,6.95
2023-02-15T08:54:39.222Z,6.82
2023-02-15T08:59:41.152Z,7.15
2023-02-15T09:04:43.181Z,6.53
2023-02-15T09:09:46.515Z,6.72
2023-02-15T09:14:48.281Z,6.97
2023-02-15T09:19:50.666Z,7.00
2023-02-15T09:24:52.576Z,6.32
2023-02-15T09:29:54.827Z,7.35
2023-02-15T09:34:56.845Z,6.68
2023-02-15T09:39:58.892Z,7.10
2023-02-15T09:45:31.340Z,7.15
2023-02-15T09:50:42.714Z,5.57
2023-02-15T09:55:52.466Z,6.55
2023-02-15T10:01:27.058Z,6.97
2023-02-15T10:06:45.699Z,6.43
2023-02-15T10:12:10.324Z,5.28
2023-02-15T10:17:25.087Z,5.53
2023-02-15T10:22:56.304Z,6.53
2023-02-15T10:28:19.534Z,5.43
2023-02-15T10:33:27.331Z,5.85
2023-02-15T10:38:57.764Z,5.47
2023-02-15T10:44:24.139Z,5.43
2023-02-15T10:49:54.092Z,6.05
2023-02-15T10:55:13.877Z,6.35
2023-02-15T11:00:40.327Z,6.53
2023-02-15T11:06:04.035Z,8.23
2023-02-15T11:11:10.621Z,6.70
2023-02-15T11:16:29.159Z,6.47
2023-02-15T11:21:40.067Z,5.45
2023-02-15T11:27:20.317Z,5.72
2023-02-15T11:32:27.646Z,5.22
2023-02-15T11:37:44.117Z,4.70
2023-02-15T11:42:50.990Z,6.10
2023-02-15T11:47:53.809Z,5.25
2023-02-15T11:53:03.761Z,5.55
2023-02-15T11:58:24.784Z,5.63
2023-02-15T12:03:48.012Z,5.70
2023-02-15T12:08:56.947Z,4.80
2023-02-15T12:14:03.114Z,4.70
2023-02-15T12:19:04.968Z,5.68
2023-02-15T12:24:46.473Z,5.72
2023-02-15T12:29:59.874Z,5.57
2023-02-15T12:35:08.303Z,5.47
2023-02-15T12:40:31.255Z,4.57
2023-02-15T12:45:35.657Z,5.38
2023-02-15T12:50:37.690Z,6.28
2023-02-15T12:55:45.434Z,5.22
2023-02-15T13:00:48.276Z,6.25
2023-02-15T13:05:54.719Z,5.63
2023-02-15T13:11:08.376Z,6.28
2023-02-15T13:16:14.451Z,6.63
2023-02-15T13:21:27.440Z,6.97
2023-02-15T13:26:32.977Z,6.97
2023-02-15T13:31:35.376Z,7.28
2023-02-15T13:36:49.370Z,5.60
2023-02-15T13:42:17.630Z,7.05
2023-02-15T13:47:19.596Z,7.50
2023-02-15T13:52:24.781Z,7.50
2023-02-15T13:57:53.733Z,6.68
2023-02-15T14:03:10.805Z,7.85
2023-02-15T14:08:52.846Z,6.47
2023-02-15T14:14:13.357Z,7.25
2023-02-15T14:19:42.377Z,7.25
2023-02-15T14:25:13.622Z,7.85
2023-02-15T14:30:27.230Z,7.97
2023-02-15T14:35:31.404Z,8.18
2023-02-15T14:41:08.737Z,6.47
2023-02-15T14:46:33.239Z,7.40
2023-02-15T14:51:44.125Z,8.32
2023-02-15T14:56:47.471Z,8.13
2023-02-15T15:02:10.749Z,8.45
2023-02-15T15:07:51.219Z,8.20
2023-02-15T15:12:55.715Z,7.88
2023-02-15T15:18:00.696Z,9.13
2023-02-15T15:23:18.961Z,10.05
2023-02-15T15:28:36.060Z,8.60
2023-02-15T15:34:07.000Z,8.95
2023-02-15T15:39:20.607Z,9.73
2023-02-15T15:44:49.968Z,9.50
2023-02-15T15:49:57.263Z,8.70
2023-02-15T15:55:15.886Z,10.73
2023-02-15T16:00:36.537Z,10.43
2023-02-15T16:05:39.568Z,12.38
2023-02-15T16:10:42.008Z,9.48
2023-02-15T16:15:46.389Z,8.43
2023-02-15T16:21:02.480Z,10.05
2023-02-15T16:26:26.289Z,8.32
2023-02-15T16:31:28.279Z,9.68
2023-02-15T16:36:30.207Z,8.57
2023-02-15T16:41:32.308Z,9.23
2023-02-15T16:46:55.085Z,9.77
2023-02-15T16:52:08.183Z,9.40
2023-02-15T16:57:23.025Z,8.32
2023-02-15T17:02:53.152Z,8.32
2023-02-15T17:08:05.427Z,9.77
2023-02-15T17:13:18.342Z,8.05
2023-02-15T17:18:23.668Z,9.02
2023-02-15T17:23:47.665Z,8.13
2023-02-15T17:28:57.114Z,9.05
2023-02-15T17:34:00.347Z,8.73
2023-02-15T17:39:07.668Z,7.78
2023-02-15T17:44:14.869Z,9.00
2023-02-15T17:49:26.011Z,8.82
2023-02-15T17:54:46.635Z,7.90
2023-02-15T18:00:07.240Z,8.77
2023-02-15T18:05:33.047Z,8.68
2023-02-15T18:10:53.274Z,9.90
2023-02-15T18:15:56.680Z,9.15
2023-02-15T18:20:58.510Z,8.02
2023-02-15T18:26:00.320Z,7.70
2023-02-15T18:31:02.735Z,9.38
2023-02-15T18:36:07.553Z,7.38
2023-02-15T18:41:16.628Z,9.05
2023-02-15T18:46:18.618Z,8.00
2023-02-15T18:51:22.983Z,8.43
2023-02-15T18:56:24.869Z,11.30
2023-02-15T19:01:28.066Z,11.02
2023-02-15T19:06:29.985Z,8.75
2023-02-15T19:11:31.932Z,9.70
2023-02-15T19:16:35.983Z,8.77
2023-02-15T19:21:39.729Z,9.90
2023-02-15T19:26:45.532Z,7.70
2023-02-15T19:31:48.007Z,10.23
2023-02-15T19:36:53.588Z,7.75
2023-02-15T19:41:55.692Z,11.38
2023-02-15T19:46:57.683Z,9.95
2023-02-15T19:52:00.156Z,9.30
2023-02-15T19:57:02.293Z,11.57
2023-02-15T20:02:05.096Z,11.23
2023-02-15T20:07:19.689Z,9.77
2023-02-15T20:12:24.840Z,9.70
2023-02-15T20:17:26.731Z,9.13
2023-02-15T20:22:29.215Z,7.22
2023-02-15T20:27:31.262Z,7.72
2023-02-15T20:32:33.237Z,8.73
2023-02-15T20:37:35.226Z,8.60
2023-02-15T20:42:37.069Z,8.38
2023-02-15T20:47:39.080Z,8.18
2023-02-15T20:52:41.155Z,9.73
2023-02-15T20:57:43.245Z,10.00
2023-02-15T21:02:50.346Z,10.02
2023-02-15T21:07:53.582Z,7.87
2023-02-15T21:12:58.057Z,8.23
2023-02-15T21:18:06.112Z,8.02
2023-02-15T21:23:13.832Z,7.95
2023-02-15T21:28:21.825Z,7.55
2023-02-15T21:33:24.664Z,8.20
2023-02-15T21:38:31.125Z,8.60
2023-02-15T21:43:51.354Z,8.48
2023-02-15T21:48:53.190Z,8.23
2023-02-15T21:53:55.071Z,7.80
2023-02-15T21:58:56.821Z,8.80
2023-02-15T22:03:59.328Z,8.55
2023-02-15T22:09:01.178Z,8.38
2023-02-15T22:14:04.035Z,7.65
2023-02-15T22:19:05.914Z,8.32
2023-02-15T22:24:07.837Z,7.35
2023-02-15T22:29:27.830Z,7.63
2023-02-15T22:34:32.656Z,9.00
2023-02-15T22:39:34.467Z,7.32
2023-02-15T22:44:36.605Z,6.72
2023-02-15T22:49:38.362Z,6.95
2023-02-15T22:54:40.277Z,6.75
2023-02-15T22:59:42.117Z,6.50
2023-02-15T23:04:43.979Z,7.68
2023-02-15T23:09:46.376Z,6.50
2023-02-15T23:14:48.390Z,7.90
2023-02-15T23:19:50.507Z,7.35
2023-02-15T23:24:53.208Z,8.35
2023-02-15T23:29:55.065Z,7.03
2023-02-15T23:34:57.013Z,7.38
2023-02-15T23:40:17.508Z,7.32
2023-02-15T23:45:23.501Z,8.15
2023-02-15T23:50:28.196Z,6.85
2023-02-15T23:55:38.834Z,7.45
